Time;durP1;ratioP1;P1;durP2;ratioP2;P2;SDS_P1;SDS_P2;PMS_P1;PMS_P2;Temp;Humidity;BMP_temperature;BMP_pressure;BME280_temperature;BME280_humidity;BME280_pressure;Samples;Min_cycle;Max_cycle;Signal;HPM_P1;HPM_P2
2022/08/24 00:00:36;;;;;;;13.63;11.25;;;;;;;24.14;51.52;101624.78;5009713;28;120014;-79
2022/08/24 00:03:03;;;;;;;15.93;12.18;;;;;;;24.09;51.62;101617.09;5009020;28;124206;-79
2022/08/24 00:05:31;;;;;;;13.00;11.48;;;;;;;24.05;51.58;101617.50;4986165;28;123244;-79
2022/08/24 00:07:58;;;;;;;14.00;12.02;;;;;;;24.02;51.72;101617.81;5007506;28;118126;-78
2022/08/24 00:10:25;;;;;;;15.68;12.05;;;;;;;24.00;51.87;101617.09;5006073;28;119041;-79
2022/08/24 00:12:52;;;;;;;12.82;11.07;;;;;;;23.98;51.94;101621.75;5001282;28;123475;-79
2022/08/24 00:15:19;;;;;;;15.32;11.65;;;;;;;23.96;52.04;101615.63;5022427;28;122190;-78
2022/08/24 00:17:47;;;;;;;13.05;11.55;;;;;;;23.95;52.11;101624.75;5007545;28;120266;-79
2022/08/24 00:20:14;;;;;;;15.20;11.43;;;;;;;23.92;52.28;101619.59;4998880;28;117334;-79
2022/08/24 00:22:43;;;;;;;14.82;11.52;;;;;;;23.89;52.13;101621.59;5008246;28;123224;-79
2022/08/24 00:25:12;;;;;;;13.20;10.90;;;;;;;23.87;52.12;101620.03;5003597;28;124047;-79
2022/08/24 00:27:41;;;;;;;17.15;11.77;;;;;;;23.84;52.62;101629.25;5002058;28;118616;-79
2022/08/24 00:30:14;;;;;;;16.88;12.43;;;;;;;23.84;52.44;101629.25;5010026;28;119093;-79
2022/08/24 00:32:42;;;;;;;13.23;11.50;;;;;;;23.82;52.49;101625.84;5007798;28;124023;-79
2022/08/24 00:35:10;;;;;;;12.65;10.95;;;;;;;23.80;52.27;101626.97;5006365;28;123269;-78
2022/08/24 00:37:39;;;;;;;15.63;11.73;;;;;;;23.78;52.38;101631.63;4989633;28;120091;-79
2022/08/24 00:40:11;;;;;;;12.18;10.93;;;;;;;23.75;52.49;101630.03;5008723;28;118899;-79
2022/08/24 00:42:39;;;;;;;15.77;11.45;;;;;;;23.72;52.28;101635.75;5004756;28;124303;-78
2022/08/24 00:45:10;;;;;;;17.73;11.77;;;;;;;23.67;52.67;101632.56;5002364;28;121910;-79
2022/08/24 00:47:45;;;;;;;14.18;11.77;;;;;;;23.64;52.84;101632.84;5005187;28;119437;-78
2022/08/24 00:50:21;;;;;;;15.55;11.70;;;;;;;23.61;52.91;101635.84;4986468;28;118728;-78
2022/08/24 00:52:55;;;;;;;15.52;10.98;;;;;;;23.58;52.92;101633.38;5005769;28;124115;-79
2022/08/24 00:55:29;;;;;;;15.32;11.80;;;;;;;23.55;52.71;101622.84;5005069;28;123864;-79
2022/08/24 00:58:00;;;;;;;14.10;12.00;;;;;;;23.52;52.92;101624.81;4998622;28;118837;-79
2022/08/24 01:00:32;;;;;;;13.07;11.50;;;;;;;23.49;52.89;101633.22;4987675;28;118924;-79
2022/08/24 01:03:03;;;;;;;13.80;12.05;;;;;;;23.46;52.82;101636.16;5004844;28;124362;-79
2022/08/24 01:05:32;;;;;;;15.45;11.85;;;;;;;23.41;52.92;101638.41;5010366;28;123943;-79
2022/08/24 01:08:00;;;;;;;14.77;11.60;;;;;;;23.37;53.11;101636.97;5009258;28;118527;-78
2022/08/24 01:10:32;;;;;;;14.30;12.27;;;;;;;23.31;53.45;101632.94;4978880;28;119121;-79
2022/08/24 01:13:04;;;;;;;16.73;13.95;;;;;;;23.28;53.70;101648.56;5011232;28;123786;-77
2022/08/24 01:15:38;;;;;;;18.50;13.77;;;;;;;23.25;53.97;101644.31;4999134;28;123704;-79
2022/08/24 01:21:07;;;;;;;21.60;15.93;;;;;;;23.22;54.08;101643.72;4999512;28;96811;-79
2022/08/24 01:23:49;;;;;;;22.48;17.27;;;;;;;23.21;54.18;101642.00;5005060;28;123806;-79
2022/08/24 01:26:22;;;;;;;22.15;16.92;;;;;;;23.19;54.52;101638.56;5009501;28;123677;-79
2022/08/24 01:28:56;;;;;;;21.05;16.42;;;;;;;23.20;54.76;101640.28;4991837;28;120089;-79
2022/08/24 01:31:25;;;;;;;21.50;16.40;;;;;;;23.21;54.68;101648.25;5007366;28;119841;-79
2022/08/24 01:33:55;;;;;;;21.73;15.52;;;;;;;23.20;54.62;101640.28;5011602;28;124777;-79
2022/08/24 01:36:45;;;;;;;20.58;15.23;;;;;;;23.19;54.45;101638.56;5011442;28;124110;-79
2022/08/24 01:39:15;;;;;;;19.92;14.48;;;;;;;23.17;54.20;101640.53;5011762;28;119312;-78
2022/08/24 01:41:43;;;;;;;16.80;13.55;;;;;;;23.17;54.19;101645.94;5010201;28;118203;-80
2022/08/24 01:44:12;;;;;;;17.88;13.07;;;;;;;23.13;54.16;101637.25;5007012;28;122126;-79
2022/08/24 01:46:44;;;;;;;19.30;14.05;;;;;;;23.11;54.33;101641.91;5007171;28;123489;-80
2022/08/24 01:49:12;;;;;;;19.98;14.98;;;;;;;23.08;54.18;101637.66;4991054;28;119079;-79
2022/08/24 01:51:41;;;;;;;20.23;13.95;;;;;;;23.05;54.02;101643.31;5023608;27;119165;-78
2022/08/24 01:54:09;;;;;;;16.95;13.30;;;;;;;23.03;53.97;101644.41;5031811;27;125054;-77
2022/08/24 01:56:36;;;;;;;17.02;13.57;;;;;;;22.99;53.98;101638.41;5031414;27;124828;-77
2022/08/24 01:59:05;;;;;;;19.85;14.25;;;;;;;22.96;54.11;101632.41;5008202;28;119040;-77
2022/08/24 02:01:37;;;;;;;16.60;13.77;;;;;;;22.93;54.10;101644.34;5030489;27;117579;-78
2022/08/24 02:04:05;;;;;;;18.05;15.07;;;;;;;22.90;54.11;101636.47;5000596;28;123421;-77
2022/08/24 02:06:37;;;;;;;16.20;13.70;;;;;;;22.86;54.00;101637.72;5020146;28;122711;-78
2022/08/24 02:09:08;;;;;;;19.40;14.23;;;;;;;22.82;54.08;101637.13;5011377;28;118536;-78
2022/08/24 02:11:36;;;;;;;19.52;15.18;;;;;;;22.78;54.34;101634.81;5010451;28;118775;-79
2022/08/24 02:14:04;;;;;;;24.23;16.13;;;;;;;22.73;54.40;101633.38;4998471;28;123452;-79
2022/08/24 02:16:32;;;;;;;19.48;16.52;;;;;;;22.70;54.66;101639.03;5013742;28;122499;-79
2022/08/24 02:18:59;;;;;;;21.58;16.88;;;;;;;22.68;54.74;101635.59;5008713;28;118512;-78
2022/08/24 02:21:27;;;;;;;21.25;15.75;;;;;;;22.67;54.47;101633.88;5026674;28;118666;-79
2022/08/24 02:23:54;;;;;;;20.50;16.17;;;;;;;22.65;54.53;101635.84;4998035;28;124246;-78
2022/08/24 02:26:21;;;;;;;20.23;16.33;;;;;;;22.63;54.69;101640.53;5008292;28;121716;-79
2022/08/24 02:28:53;;;;;;;20.88;16.25;;;;;;;22.61;54.80;101634.41;5006120;28;119503;-79
2022/08/24 02:31:21;;;;;;;19.67;16.35;;;;;;;22.59;55.09;101641.75;4988176;28;117602;-80
2022/08/24 02:33:49;;;;;;;24.15;17.58;;;;;;;22.58;55.12;101645.44;4990365;28;123569;-79
2022/08/24 02:36:16;;;;;;;21.15;17.35;;;;;;;22.56;55.33;101642.00;5005108;28;123869;-80
2022/08/24 02:38:54;;;;;;;20.65;15.80;;;;;;;22.53;55.22;101642.28;4993071;28;118176;-80
2022/08/24 02:41:25;;;;;;;20.70;15.98;;;;;;;22.51;55.33;101638.84;5007758;28;117972;-80
2022/08/24 02:43:54;;;;;;;21.10;18.15;;;;;;;22.49;55.59;101652.47;5007527;28;122621;-80
2022/08/24 02:46:25;;;;;;;21.38;17.33;;;;;;;22.47;55.77;101648.16;5008902;28;124159;-78
2022/08/24 02:48:57;;;;;;;23.95;17.58;;;;;;;22.46;55.60;101651.88;5006177;28;119227;-79
2022/08/24 02:51:42;;;;;;;19.70;16.07;;;;;;;22.44;55.70;101653.84;5021950;28;119668;-79
2022/08/24 02:54:16;;;;;;;20.10;16.10;;;;;;;22.41;55.45;101660.34;4987008;28;124067;-80
2022/08/24 02:56:44;;;;;;;18.90;15.70;;;;;;;22.40;55.41;101663.19;5003682;28;123448;-79
2022/08/24 02:59:12;;;;;;;22.83;15.60;;;;;;;22.37;55.03;101655.31;5004271;28;119423;-79
2022/08/24 03:01:40;;;;;;;20.38;14.73;;;;;;;22.31;55.15;101657.53;5005002;28;118746;-79
2022/08/24 03:04:08;;;;;;;19.02;16.20;;;;;;;22.27;55.20;101656.09;4988393;28;122385;-79
2022/08/24 03:06:36;;;;;;;19.83;16.50;;;;;;;22.24;55.33;101653.59;5003296;28;124872;-80
2022/08/24 03:09:03;;;;;;;21.88;16.38;;;;;;;22.22;55.26;101652.84;5003632;28;119340;-79
2022/08/24 03:11:31;;;;;;;21.52;16.48;;;;;;;22.17;55.35;101647.84;5004361;28;119596;-80
2022/08/24 03:13:58;;;;;;;21.13;15.75;;;;;;;22.14;55.24;101652.63;4985530;28;123473;-79
2022/08/24 03:16:28;;;;;;;19.67;17.00;;;;;;;22.13;55.42;101656.31;4989516;28;123388;-80
2022/08/24 03:18:55;;;;;;;21.73;16.73;;;;;;;22.10;55.61;101656.56;5002900;28;117687;-79
2022/08/24 03:21:25;;;;;;;21.38;17.17;;;;;;;22.06;55.58;101649.72;5004994;28;118191;-79
2022/08/24 03:23:52;;;;;;;19.63;16.50;;;;;;;22.04;55.69;101652.53;4986110;28;122131;-79
2022/08/24 03:26:20;;;;;;;22.15;17.00;;;;;;;22.01;55.86;101641.13;4989561;28;123471;-80
2022/08/24 03:28:48;;;;;;;19.83;17.00;;;;;;;21.99;55.67;101643.09;5011475;28;119780;-80
2022/08/24 03:31:16;;;;;;;20.02;16.50;;;;;;;21.96;55.58;101645.06;5007128;28;117485;-79
2022/08/24 03:33:45;;;;;;;19.42;16.27;;;;;;;21.93;55.45;101639.91;5010030;28;123230;-81
2022/08/24 03:36:12;;;;;;;21.75;16.17;;;;;;;21.89;55.52;101646.53;5011538;28;123789;-79
2022/08/24 03:38:41;;;;;;;19.52;16.15;;;;;;;21.87;55.57;101643.09;4997040;28;118946;-80
2022/08/24 03:41:10;;;;;;;23.52;17.77;;;;;;;21.84;55.85;101635.25;4995316;28;118822;-80
2022/08/24 03:43:50;;;;;;;20.15;16.60;;;;;;;21.82;55.85;101637.22;5029700;28;124818;-80
2022/08/24 03:46:25;;;;;;;19.48;16.75;;;;;;;21.79;55.94;101632.06;4994572;28;122752;-79
2022/08/24 03:48:53;;;;;;;22.05;17.08;;;;;;;21.76;55.75;101632.31;5011446;28;118395;-78
2022/08/24 03:51:25;;;;;;;22.02;17.05;;;;;;;21.73;56.28;101632.56;4994984;28;117410;-79
2022/08/24 03:53:55;;;;;;;22.67;15.90;;;;;;;21.72;56.01;101636.25;5008926;28;123315;-79
2022/08/24 03:56:25;;;;;;;19.52;16.25;;;;;;;21.71;55.91;101631.81;5011925;28;123380;-80
2022/08/24 03:58:52;;;;;;;19.10;15.18;;;;;;;21.69;55.73;101633.78;5009572;28;120145;-78
2022/08/24 04:01:21;;;;;;;19.20;14.70;;;;;;;21.64;55.68;101633.28;5006543;28;118326;-81
2022/08/24 04:03:49;;;;;;;19.33;15.43;;;;;;;21.58;55.67;101635.47;5009803;28;125012;-80
2022/08/24 04:06:17;;;;;;;21.45;15.88;;;;;;;21.56;55.83;101637.44;5011062;28;124183;-80
2022/08/24 04:08:44;;;;;;;19.98;16.02;;;;;;;21.53;55.96;101637.69;4999964;28;118094;-79
2022/08/24 04:11:18;;;;;;;20.45;15.90;;;;;;;21.51;55.92;101639.66;5013472;28;119172;-80
2022/08/24 04:13:46;;;;;;;20.70;16.45;;;;;;;21.50;55.87;101646.00;4993819;28;123502;-80
2022/08/24 04:16:17;;;;;;;19.35;16.02;;;;;;;21.50;56.07;101643.31;5004670;28;123703;-79
2022/08/24 04:18:46;;;;;;;22.55;16.58;;;;;;;21.48;56.04;101647.97;5006886;28;118486;-80
2022/08/24 04:21:19;;;;;;;21.88;16.85;;;;;;;21.46;55.84;101641.84;4990388;28;117605;-80
2022/08/24 04:23:46;;;;;;;21.88;17.23;;;;;;;21.45;56.05;101650.03;5006596;28;123769;-80
2022/08/24 04:26:18;;;;;;;21.55;17.58;;;;;;;21.41;56.20;101654.78;5005748;28;124232;-81
2022/08/24 04:29:08;;;;;;;19.52;17.05;;;;;;;21.38;56.18;101655.03;4990499;28;117796;-79
2022/08/24 04:31:41;;;;;;;27.13;17.83;;;;;;;21.36;56.09;101662.34;5005993;28;118375;-80
2022/08/24 04:34:11;;;;;;;24.48;17.45;;;;;;;21.33;56.10;101662.63;4985153;28;122324;-81
2022/08/24 04:36:41;;;;;;;22.38;18.20;;;;;;;21.30;56.46;101657.47;5003897;28;122765;-81
2022/08/24 04:39:08;;;;;;;21.35;17.83;;;;;;;21.28;56.35;101665.66;5007115;28;119929;-80
2022/08/24 04:41:47;;;;;;;23.17;17.88;;;;;;;21.25;56.47;101656.94;5009420;28;118539;-80
2022/08/24 04:44:17;;;;;;;23.42;18.60;;;;;;;21.24;56.39;101661.47;5005810;28;123810;-80
2022/08/24 04:46:45;;;;;;;21.13;17.02;;;;;;;21.22;56.45;101665.28;4990909;28;122655;-80
2022/08/24 04:49:13;;;;;;;23.67;17.83;;;;;;;21.19;56.56;101659.16;5002727;28;120271;-80
2022/08/24 04:51:40;;;;;;;22.98;17.40;;;;;;;21.20;56.51;101663.56;4990196;28;119464;-80
2022/08/24 04:54:08;;;;;;;23.73;17.85;;;;;;;21.19;56.56;101667.25;4990245;28;124290;-81
2022/08/24 04:56:37;;;;;;;23.83;17.65;;;;;;;21.19;56.49;101675.31;5006024;28;125051;-80
2022/08/24 04:59:05;;;;;;;24.52;19.15;;;;;;;21.19;56.80;101672.63;4990907;28;118458;-80
2022/08/24 05:01:33;;;;;;;24.35;18.50;;;;;;;21.20;57.08;101674.31;5003170;28;117384;-80
2022/08/24 05:04:03;;;;;;;24.92;20.08;;;;;;;21.21;57.16;101686.00;4988719;28;124707;-80
2022/08/24 05:06:32;;;;;;;25.73;19.00;;;;;;;21.22;57.33;101681.44;4988242;28;122727;-81
2022/08/24 05:09:04;;;;;;;27.23;19.25;;;;;;;21.24;57.34;101682.19;5002175;28;118967;-80
2022/08/24 05:11:34;;;;;;;23.63;18.90;;;;;;;21.25;57.30;101681.19;5005423;28;119475;-81
2022/08/24 05:14:02;;;;;;;22.08;18.02;;;;;;;21.28;57.25;101680.97;5014920;28;123238;-79
2022/08/24 05:16:32;;;;;;;24.08;17.98;;;;;;;21.30;57.05;101684.41;4991136;28;122356;-80
2022/08/24 05:19:01;;;;;;;22.08;17.30;;;;;;;21.33;56.95;101692.25;5006125;28;118780;-80
2022/08/24 05:21:29;;;;;;;23.92;17.15;;;;;;;21.32;56.63;101690.53;5005478;28;118431;-80
2022/08/24 05:23:57;;;;;;;20.98;16.88;;;;;;;21.31;57.03;101691.53;5006058;28;123718;-79
2022/08/24 05:26:29;;;;;;;24.17;17.67;;;;;;;21.29;56.88;101698.88;5005081;28;124067;-80
2022/08/24 05:28:59;;;;;;;24.23;17.77;;;;;;;21.30;57.20;101700.56;4987823;28;119551;-84
2022/08/24 05:31:32;;;;;;;22.77;17.75;;;;;;;21.31;57.09;101705.00;5007955;28;119824;-81
2022/08/24 05:34:04;;;;;;;24.48;17.95;;;;;;;21.30;57.33;101700.56;5022248;28;125731;-82
2022/08/24 05:36:37;;;;;;;23.38;19.65;;;;;;;21.30;57.33;101695.19;5013109;28;123689;-81
2022/08/24 05:39:09;;;;;;;26.60;20.77;;;;;;;21.32;57.51;101701.31;5005199;28;119550;-81
2022/08/24 05:41:41;;;;;;;28.20;20.85;;;;;;;21.34;57.62;101702.03;4989501;28;121379;-81
2022/08/24 05:44:17;;;;;;;29.63;22.40;;;;;;;21.36;57.76;101710.88;5006344;28;122605;-80
2022/08/24 05:46:46;;;;;;;29.02;21.60;;;;;;;21.38;57.80;101712.50;5002170;28;123403;-81
2022/08/24 05:49:13;;;;;;;28.63;21.70;;;;;;;21.43;57.92;101708.56;4992864;28;118499;-81
2022/08/24 05:51:41;;;;;;;29.25;20.85;;;;;;;21.47;58.29;101708.22;5024586;28;117158;-81
2022/08/24 05:54:12;;;;;;;28.10;19.45;;;;;;;21.51;58.39;101715.13;5008960;28;123304;-82
2022/08/24 05:57:03;;;;;;;26.20;20.40;;;;;;;21.56;58.13;101712.91;5005228;28;123843;-82
2022/08/24 05:59:37;;;;;;;28.20;21.85;;;;;;;21.66;58.23;101712.19;5007708;28;119149;-81
2022/08/24 06:02:12;;;;;;;30.88;23.92;;;;;;;21.72;58.26;101707.19;4988154;28;118229;-81
2022/08/24 06:04:40;;;;;;;30.67;24.30;;;;;;;21.79;58.49;101707.56;4985734;28;123353;-79
2022/08/24 06:07:10;;;;;;;34.55;25.80;;;;;;;21.85;58.85;101707.09;5002634;28;123786;-79
2022/08/24 06:09:42;;;;;;;35.25;26.83;;;;;;;21.93;58.47;101703.78;5012703;28;117861;-79
2022/08/24 06:12:13;;;;;;;34.10;27.38;;;;;;;22.00;58.77;101706.84;5030507;28;117975;-79
2022/08/24 06:14:46;;;;;;;39.65;30.15;;;;;;;22.07;59.18;101722.41;5018333;28;123967;-79
2022/08/24 06:17:16;;;;;;;41.78;31.67;;;;;;;22.15;59.45;101724.50;5005192;28;122548;-79
2022/08/24 06:19:44;;;;;;;42.00;33.35;;;;;;;22.24;59.56;101718.34;5015354;28;117915;-79
2022/08/24 06:22:11;;;;;;;41.85;33.88;;;;;;;22.33;59.88;101720.34;4987191;28;118107;-79
2022/08/24 06:27:27;;;;;;;39.30;30.70;;;;;;;22.53;60.07;101715.19;4997983;28;124054;-78
2022/08/24 06:30:04;;;;;;;39.60;30.98;;;;;;;22.63;60.38;101724.22;4997931;28;121397;-79
2022/08/24 06:33:01;;;;;;;40.60;28.35;;;;;;;22.75;60.23;101727.75;4996044;28;119701;-79
2022/08/24 06:35:37;;;;;;;38.75;27.80;;;;;;;22.88;60.15;101730.28;4989740;28;123149;-79
2022/08/24 06:38:09;;;;;;;34.85;26.73;;;;;;;22.98;60.23;101723.16;4978837;28;123300;-79
2022/08/24 06:40:37;;;;;;;39.58;28.13;;;;;;;23.12;60.47;101725.56;5001402;28;118726;-79
2022/08/24 06:43:04;;;;;;;34.88;26.88;;;;;;;23.26;60.50;101726.25;4998062;28;118366;-78
2022/08/24 06:45:40;;;;;;;35.67;28.13;;;;;;;23.39;60.48;101726.91;4985097;28;122251;-79
2022/08/24 06:48:12;;;;;;;39.40;27.50;;;;;;;23.55;60.31;101725.63;4998704;28;123995;-78
2022/08/24 06:50:39;;;;;;;36.05;26.27;;;;;;;23.69;60.39;101727.97;4980259;28;120085;-78
2022/08/24 06:53:07;;;;;;;35.30;26.85;;;;;;;23.84;60.29;101726.66;4992620;28;119252;-79
2022/08/24 06:55:34;;;;;;;32.50;25.67;;;;;;;23.99;60.14;101734.44;5001448;28;123820;-78
2022/08/24 06:58:01;;;;;;;32.70;24.83;;;;;;;24.15;59.96;101734.78;5005828;28;123773;-78
2022/08/24 07:00:29;;;;;;;31.13;25.17;;;;;;;24.32;59.87;101729.72;5007321;28;117647;-79
2022/08/24 07:02:57;;;;;;;31.95;24.00;;;;;;;24.49;59.83;101731.78;4995818;28;119118;-79
2022/08/24 07:05:25;;;;;;;33.17;25.17;;;;;;;24.71;59.88;101735.25;4994782;28;123755;-79
2022/08/24 07:08:24;;;;;;;32.30;24.58;;;;;;;24.94;59.32;101731.31;4983869;28;124085;-79
2022/08/24 07:10:51;;;;;;;30.50;25.73;;;;;;;25.15;59.06;101730.31;4999013;28;119788;-78
2022/08/24 07:13:18;;;;;;;27.67;23.15;;;;;;;25.33;59.03;101731.31;5001700;28;119520;-79
2022/08/24 07:15:46;;;;;;;27.25;21.83;;;;;;;25.52;58.60;101735.88;4995692;28;124075;-79
2022/08/24 07:18:15;;;;;;;28.05;22.83;;;;;;;25.74;58.78;101739.28;5004304;28;123289;-79
2022/08/24 07:20:46;;;;;;;27.25;21.45;;;;;;;25.95;57.74;101736.38;5002043;28;119065;-79
2022/08/24 07:23:19;;;;;;;23.50;20.95;;;;;;;26.13;57.32;101734.59;5000035;28;120204;-79
2022/08/24 07:25:47;;;;;;;28.77;21.67;;;;;;;26.33;57.61;101734.50;5003148;28;123131;-79
2022/08/24 07:28:21;;;;;;;24.17;20.85;;;;;;;26.53;57.21;101741.53;5028997;27;123621;-79
2022/08/24 07:30:58;;;;;;;25.52;19.92;;;;;;;26.74;56.60;101732.28;5007158;28;118893;-79
2022/08/24 07:33:28;;;;;;;22.30;18.98;;;;;;;26.94;56.34;101738.44;4984191;28;119270;-78
2022/08/24 07:35:56;;;;;;;20.77;18.55;;;;;;;27.13;55.63;101727.41;4987408;28;123565;-79
2022/08/24 07:38:23;;;;;;;22.40;19.58;;;;;;;27.34;55.47;101729.81;5004713;28;124087;-79
2022/08/24 07:40:51;;;;;;;24.92;18.65;;;;;;;27.54;54.72;101729.66;5003485;28;118902;-78
2022/08/24 07:43:40;;;;;;;22.90;18.33;;;;;;;27.75;54.36;101732.00;5007794;28;118687;-78
2022/08/24 07:46:09;;;;;;;20.55;15.38;;;;;;;27.93;53.56;101729.22;4991561;28;123547;-79
2022/08/24 07:48:37;;;;;;;18.60;15.15;;;;;;;28.10;52.77;101725.56;4996433;28;123231;-78
2022/08/24 07:51:11;;;;;;;25.67;15.55;;;;;;;28.28;52.43;101727.38;4987248;28;117887;-79
2022/08/24 07:53:41;;;;;;;25.40;15.82;;;;;;;28.44;52.41;101727.41;4991351;28;118638;-78
2022/08/24 07:56:27;;;;;;;22.43;15.83;;;;;;;28.65;52.06;101737.03;5006817;28;123626;-78
2022/08/24 07:58:55;;;;;;;24.33;16.02;;;;;;;28.83;51.48;101735.03;4986944;28;124066;-79
2022/08/24 08:01:23;;;;;;;28.67;16.75;;;;;;;28.97;50.93;101738.13;5003526;28;118968;-79
2022/08/24 08:03:51;;;;;;;20.58;16.50;;;;;;;29.08;50.76;101730.50;5007218;28;120402;-79
2022/08/24 08:06:19;;;;;;;26.70;15.23;;;;;;;29.21;50.39;101740.06;5004149;28;124593;-78
2022/08/24 08:08:49;;;;;;;21.95;15.27;;;;;;;29.33;49.14;101746.00;4994436;28;123004;-78
2022/08/24 08:11:16;;;;;;;18.15;13.35;;;;;;;29.39;49.03;101748.09;5003617;28;119623;-79
2022/08/24 08:13:44;;;;;;;17.80;13.70;;;;;;;29.50;48.68;101751.31;4986969;28;119037;-78
2022/08/24 08:16:11;;;;;;;17.33;12.55;;;;;;;29.62;48.57;101751.81;4997560;28;123763;-79
2022/08/24 08:18:39;;;;;;;16.83;12.15;;;;;;;29.75;48.34;101753.19;4989307;28;123101;-78
2022/08/24 08:24:13;;;;;;;16.88;12.35;;;;;;;29.88;47.84;101753.50;5002833;28;119117;-78
2022/08/24 08:24:17;;;;;;;18.55;12.10;;;;;;;30.03;47.38;101757.22;4990769;28;119067;-78
2022/08/24 08:26:52;;;;;;;14.02;11.88;;;;;;;30.15;47.17;101765.03;5017234;28;123219;-78
2022/08/24 08:29:25;;;;;;;13.02;10.55;;;;;;;30.23;46.27;101771.34;4999306;28;123349;-78
2022/08/24 08:31:53;;;;;;;13.65;8.30;;;;;;;30.28;46.06;101768.06;4986818;28;119747;-79
2022/08/24 08:34:20;;;;;;;14.50;9.50;;;;;;;30.38;45.34;101760.53;4976404;28;118207;-79
2022/08/24 08:36:48;;;;;;;10.45;7.93;;;;;;;30.43;44.66;101763.59;4989795;28;123353;-79
2022/08/24 08:39:19;;;;;;;11.38;8.77;;;;;;;30.48;44.37;101754.88;4987421;28;123523;-78
2022/08/24 08:42:06;;;;;;;10.15;9.13;;;;;;;30.54;44.69;101764.22;4981451;28;120042;-78
2022/08/24 08:45:10;;;;;;;8.48;5.97;;;;;;;30.60;43.34;101763.50;5001474;28;120235;-79
2022/08/24 08:47:45;;;;;;;9.68;6.53;;;;;;;30.61;43.16;101760.59;4986170;28;124107;-79
2022/08/24 08:50:24;;;;;;;7.93;5.55;;;;;;;30.65;43.18;101764.69;4970575;28;123165;-79
2022/08/24 08:53:13;;;;;;;9.57;7.22;;;;;;;30.74;43.96;101760.03;5004666;28;118885;-79
2022/08/24 08:56:05;;;;;;;9.90;7.38;;;;;;;30.92;43.72;101750.69;4992030;28;118050;-79
2022/08/24 08:59:00;;;;;;;8.60;7.13;;;;;;;31.09;43.63;101752.28;4985595;28;123345;-79
2022/08/24 09:02:02;;;;;;;8.98;6.25;;;;;;;31.21;42.79;101756.31;4974579;28;123903;-79
2022/08/24 09:05:08;;;;;;;5.40;4.43;;;;;;;31.29;42.23;101759.97;4991773;28;119454;-79
2022/08/24 09:07:46;;;;;;;6.78;4.50;;;;;;;31.39;42.16;101752.38;4985722;28;119538;-79
2022/08/24 09:10:45;;;;;;;4.20;3.40;;;;;;;31.49;41.15;101758.47;4987355;28;124232;-79
2022/08/24 09:13:32;;;;;;;5.15;3.63;;;;;;;31.57;41.82;101750.19;5002388;28;124171;-79
2022/08/24 09:16:25;;;;;;;8.07;5.50;;;;;;;31.68;41.08;101757.09;4986030;28;119225;-79
2022/08/24 09:19:08;;;;;;;6.10;4.22;;;;;;;31.80;41.71;101761.09;5018025;28;120942;-79
2022/08/24 09:21:56;;;;;;;6.32;4.97;;;;;;;31.93;41.26;101757.69;4995891;28;123402;-79
2022/08/24 09:24:42;;;;;;;5.55;4.95;;;;;;;32.03;40.60;101764.81;4990991;28;123533;-79
2022/08/24 09:28:02;;;;;;;10.95;5.05;;;;;;;32.12;40.32;101763.69;4985566;28;118598;-79
2022/08/24 09:30:50;;;;;;;5.82;3.63;;;;;;;32.16;39.66;101752.16;4972547;28;118021;-78
2022/08/24 09:33:24;;;;;;;3.38;2.70;;;;;;;32.20;39.09;101755.34;5003152;28;124723;-79
2022/08/24 09:36:03;;;;;;;3.03;2.10;;;;;;;32.23;39.44;101752.25;4991313;28;123338;-79
2022/08/24 09:38:57;;;;;;;3.83;2.90;;;;;;;32.27;39.41;101756.31;4993899;28;119629;-79
2022/08/24 09:42:02;;;;;;;3.37;2.20;;;;;;;32.27;39.24;101760.91;4985463;28;119054;-79
2022/08/24 09:44:32;;;;;;;3.22;2.13;;;;;;;32.26;38.62;101760.06;5001457;28;123685;-79
2022/08/24 09:47:23;;;;;;;2.67;1.90;;;;;;;32.30;39.22;101766.88;4980819;28;124678;-79
2022/08/24 09:50:23;;;;;;;4.15;2.80;;;;;;;32.39;39.43;101760.25;4989196;28;119047;-79
2022/08/24 09:52:51;;;;;;;3.25;2.60;;;;;;;32.54;39.01;101762.13;4999104;28;118695;-79
2022/08/24 09:55:51;;;;;;;4.20;2.92;;;;;;;32.66;38.85;101760.59;5001991;28;122966;-79
2022/08/24 09:58:43;;;;;;;7.30;2.85;;;;;;;32.78;38.65;101759.06;4985402;28;123773;-79
2022/08/24 10:01:33;;;;;;;4.53;2.20;;;;;;;32.87;38.07;101750.69;4985037;28;120709;-79
2022/08/24 10:04:24;;;;;;;5.68;3.00;;;;;;;32.90;37.78;101755.81;4993727;28;119407;-79
2022/08/24 10:07:14;;;;;;;4.10;2.97;;;;;;;32.87;37.51;101758.94;4999761;28;124722;-79
2022/08/24 10:10:04;;;;;;;4.18;3.70;;;;;;;32.89;37.46;101748.59;4999191;28;123998;-79
2022/08/24 10:12:52;;;;;;;6.43;3.78;;;;;;;32.95;37.86;101747.84;4985500;28;118695;-79
2022/08/24 10:15:49;;;;;;;4.10;3.00;;;;;;;33.02;37.79;101743.28;4999635;28;117676;-79
2022/08/24 10:18:34;;;;;;;7.30;3.17;;;;;;;33.12;37.64;101732.00;4998588;28;123115;-78
2022/08/24 10:21:17;;;;;;;3.13;2.33;;;;;;;33.17;37.46;101735.84;5004734;28;124188;-79
2022/08/24 10:24:08;;;;;;;3.47;2.33;;;;;;;33.23;37.28;101744.31;5005556;28;119729;-79
2022/08/24 10:27:06;;;;;;;5.35;2.30;;;;;;;33.21;36.92;101738.19;5013685;28;118768;-79
2022/08/24 10:29:36;;;;;;;3.80;2.50;;;;;;;33.17;36.71;101735.84;5020852;28;123289;-79
2022/08/24 10:32:16;;;;;;;4.05;2.72;;;;;;;33.15;36.67;101732.44;5014677;28;124061;-79
2022/08/24 10:35:15;;;;;;;2.60;1.90;;;;;;;33.21;36.45;101735.44;5007970;28;118920;-79
2022/08/24 10:41:11;;;;;;;2.83;1.90;;;;;;;33.28;35.95;101725.34;4999168;28;123643;-79
2022/08/24 10:44:04;;;;;;;3.03;1.60;;;;;;;33.26;35.61;101732.94;5004418;28;123143;-79
2022/08/24 10:46:50;;;;;;;2.40;1.60;;;;;;;33.26;35.17;101722.81;5009627;28;118946;-79
2022/08/24 10:49:51;;;;;;;3.60;1.45;;;;;;;33.24;35.48;101718.56;4997708;28;119153;-79
2022/08/24 10:52:48;;;;;;;2.90;1.45;;;;;;;33.27;35.55;101724.50;4999334;28;124131;-79
2022/08/24 10:55:24;;;;;;;3.28;1.88;;;;;;;33.26;35.13;101717.31;5020126;28;122970;-79
2022/08/24 10:58:22;;;;;;;2.03;1.83;;;;;;;33.22;35.34;101720.66;4982021;28;118355;-80
2022/08/24 11:00:50;;;;;;;4.20;1.75;;;;;;;33.22;35.82;101723.41;4997180;28;120122;-80
2022/08/24 11:03:22;;;;;;;2.53;1.90;;;;;;;33.22;35.77;101715.19;4999070;28;124236;-80
2022/08/24 11:05:58;;;;;;;2.15;1.55;;;;;;;33.23;35.98;101734.19;5003204;28;122679;-79
2022/08/24 11:08:27;;;;;;;2.88;1.80;;;;;;;33.29;35.86;101721.56;5003116;28;118170;-79
2022/08/24 11:11:13;;;;;;;2.20;1.60;;;;;;;33.35;35.79;101715.28;5006351;28;119317;-79
2022/08/24 11:13:57;;;;;;;2.13;1.50;;;;;;;33.48;35.55;101715.38;4991987;28;123008;-79
2022/08/24 11:16:45;;;;;;;3.97;2.03;;;;;;;33.60;35.07;101718.41;5002779;28;124312;-79
2022/08/24 11:19:30;;;;;;;2.35;1.50;;;;;;;33.70;35.18;101707.09;5003526;28;119224;-79
2022/08/24 11:22:01;;;;;;;3.70;1.65;;;;;;;33.79;34.87;101705.88;4994763;28;118827;-80
2022/08/24 11:24:45;;;;;;;3.00;1.60;;;;;;;33.86;34.51;101706.78;5001060;28;123806;-80
2022/08/24 11:27:15;;;;;;;2.03;1.60;;;;;;;33.90;34.50;101713.56;5004906;28;126220;-79
2022/08/24 11:29:48;;;;;;;3.08;1.67;;;;;;;33.93;34.87;101713.16;5006750;28;119408;-80
2022/08/24 11:32:40;;;;;;;1.80;1.60;;;;;;;33.98;35.03;101703.47;5009845;28;119307;-79
2022/08/24 11:35:16;;;;;;;2.35;1.60;;;;;;;33.99;34.23;101700.50;5005390;28;123212;-80
2022/08/24 11:37:44;;;;;;;2.38;1.73;;;;;;;34.00;33.78;101701.34;5008163;28;124301;-80
2022/08/24 11:40:13;;;;;;;2.05;1.60;;;;;;;33.97;34.24;101702.63;5025572;28;118351;-79
2022/08/24 11:43:01;;;;;;;2.30;1.60;;;;;;;33.93;34.31;101707.66;5008778;28;118509;-79
2022/08/24 11:45:43;;;;;;;1.60;1.50;;;;;;;33.91;33.88;101703.44;5019861;28;124447;-80